sensor_id;sensor_type;location;lat;lon;timestamp;temperature;humidity
15357;DHT22;7778;48.792;9.260;2023-02-28T00:01:48;-1.50;99.90
15357;DHT22;7778;48.792;9.260;2023-02-28T00:04:34;-1.60;99.90
15357;DHT22;7778;48.792;9.260;2023-02-28T00:07:21;-1.70;99.90
15357;DHT22;7778;48.792;9.260;2023-02-28T00:10:08;-1.80;99.90
15357;DHT22;7778;48.792;9.260;2023-02-28T00:12:59;-1.90;99.90
15357;DHT22;7778;48.792;9.260;2023-02-28T00:15:46;-2.00;99.90
15357;DHT22;7778;48.792;9.260;2023-02-28T00:18:31;-2.10;99.90
15357;DHT22;7778;48.792;9.260;2023-02-28T00:21:18;-2.20;99.90
15357;DHT22;7778;48.792;9.260;2023-02-28T00:24:06;-2.30;99.90
15357;DHT22;7778;48.792;9.260;2023-02-28T00:26:52;-2.30;99.90
15357;DHT22;7778;48.792;9.260;2023-02-28T00:29:38;-2.30;99.90
15357;DHT22;7778;48.792;9.260;2023-02-28T00:32:23;-2.20;99.90
15357;DHT22;7778;48.792;9.260;2023-02-28T00:35:10;-2.20;99.90
15357;DHT22;7778;48.792;9.260;2023-02-28T00:37:56;-2.30;99.90
15357;DHT22;7778;48.792;9.260;2023-02-28T00:40:44;-2.30;99.90
15357;DHT22;7778;48.792;9.260;2023-02-28T00:43:29;-2.30;99.90
15357;DHT22;7778;48.792;9.260;2023-02-28T00:46:16;-2.40;99.90
15357;DHT22;7778;48.792;9.260;2023-02-28T00:49:01;-2.30;99.90
15357;DHT22;7778;48.792;9.260;2023-02-28T00:51:47;-2.40;99.90
15357;DHT22;7778;48.792;9.260;2023-02-28T00:54:32;-2.40;99.90
15357;DHT22;7778;48.792;9.260;2023-02-28T00:57:19;-2.40;99.90
15357;DHT22;7778;48.792;9.260;2023-02-28T01:00:07;-2.40;99.90
15357;DHT22;7778;48.792;9.260;2023-02-28T01:02:54;-2.30;99.90
15357;DHT22;7778;48.792;9.260;2023-02-28T01:05:40;-2.40;99.90
15357;DHT22;7778;48.792;9.260;2023-02-28T01:08:26;-2.50;99.90
15357;DHT22;7778;48.792;9.260;2023-02-28T01:11:15;-2.40;99.90
15357;DHT22;7778;48.792;9.260;2023-02-28T01:14:05;-2.40;99.90
15357;DHT22;7778;48.792;9.260;2023-02-28T01:16:51;-2.50;99.90
15357;DHT22;7778;48.792;9.260;2023-02-28T01:19:36;-2.40;99.90
15357;DHT22;7778;48.792;9.260;2023-02-28T01:22:22;-2.50;99.90
15357;DHT22;7778;48.792;9.260;2023-02-28T01:25:08;-2.50;99.90
15357;DHT22;7778;48.792;9.260;2023-02-28T01:27:53;-2.60;99.90
15357;DHT22;7778;48.792;9.260;2023-02-28T01:30:40;-2.60;99.90
15357;DHT22;7778;48.792;9.260;2023-02-28T01:33:26;-2.60;99.90
15357;DHT22;7778;48.792;9.260;2023-02-28T01:36:14;-2.70;99.90
15357;DHT22;7778;48.792;9.260;2023-02-28T01:39:01;-2.60;99.90
15357;DHT22;7778;48.792;9.260;2023-02-28T01:41:46;-2.60;99.90
15357;DHT22;7778;48.792;9.260;2023-02-28T01:44:58;-2.60;99.90
15357;DHT22;7778;48.792;9.260;2023-02-28T01:48:05;-2.60;99.90
15357;DHT22;7778;48.792;9.260;2023-02-28T01:50:55;-2.60;99.90
15357;DHT22;7778;48.792;9.260;2023-02-28T01:53:47;-2.60;99.90
15357;DHT22;7778;48.792;9.260;2023-02-28T01:56:36;-2.60;99.90
15357;DHT22;7778;48.792;9.260;2023-02-28T01:59:25;-2.60;99.90
15357;DHT22;7778;48.792;9.260;2023-02-28T02:02:12;-2.60;99.90
15357;DHT22;7778;48.792;9.260;2023-02-28T02:05:03;-2.60;99.90
15357;DHT22;7778;48.792;9.260;2023-02-28T02:07:54;-2.50;99.90
15357;DHT22;7778;48.792;9.260;2023-02-28T02:10:43;-2.50;99.90
15357;DHT22;7778;48.792;9.260;2023-02-28T02:13:42;-2.40;99.90
15357;DHT22;7778;48.792;9.260;2023-02-28T02:16:45;-2.30;99.90
15357;DHT22;7778;48.792;9.260;2023-02-28T02:27:20;-2.20;99.90
15357;DHT22;7778;48.792;9.260;2023-02-28T02:34:25;-2.10;99.90
15357;DHT22;7778;48.792;9.260;2023-02-28T02:37:26;-2.10;99.90
15357;DHT22;7778;48.792;9.260;2023-02-28T02:40:18;-2.10;99.90
15357;DHT22;7778;48.792;9.260;2023-02-28T02:43:10;-2.20;99.90
15357;DHT22;7778;48.792;9.260;2023-02-28T02:46:02;-2.10;99.90
15357;DHT22;7778;48.792;9.260;2023-02-28T02:48:52;-2.10;99.90
15357;DHT22;7778;48.792;9.260;2023-02-28T02:51:42;-2.20;99.90
15357;DHT22;7778;48.792;9.260;2023-02-28T02:54:33;-2.10;99.90
15357;DHT22;7778;48.792;9.260;2023-02-28T02:57:23;-2.00;99.90
15357;DHT22;7778;48.792;9.260;2023-02-28T03:00:12;-1.90;99.90
15357;DHT22;7778;48.792;9.260;2023-02-28T03:02:59;-2.00;99.90
15357;DHT22;7778;48.792;9.260;2023-02-28T03:05:49;-1.90;99.90
15357;DHT22;7778;48.792;9.260;2023-02-28T03:08:38;-1.90;99.90
15357;DHT22;7778;48.792;9.260;2023-02-28T03:11:23;-1.90;99.90
15357;DHT22;7778;48.792;9.260;2023-02-28T03:14:30;-1.80;99.90
15357;DHT22;7778;48.792;9.260;2023-02-28T03:17:47;-1.70;99.90
15357;DHT22;7778;48.792;9.260;2023-02-28T03:20:43;-1.70;99.90
15357;DHT22;7778;48.792;9.260;2023-02-28T03:23:41;-1.60;99.90
15357;DHT22;7778;48.792;9.260;2023-02-28T03:26:29;-1.60;99.90
15357;DHT22;7778;48.792;9.260;2023-02-28T03:29:22;-1.60;99.90
15357;DHT22;7778;48.792;9.260;2023-02-28T03:32:14;-1.60;99.90
15357;DHT22;7778;48.792;9.260;2023-02-28T03:35:09;-1.60;99.90
15357;DHT22;7778;48.792;9.260;2023-02-28T03:38:02;-1.60;99.90
15357;DHT22;7778;48.792;9.260;2023-02-28T03:40:54;-1.60;99.90
15357;DHT22;7778;48.792;9.260;2023-02-28T03:43:45;-1.70;99.90
15357;DHT22;7778;48.792;9.260;2023-02-28T03:46:37;-1.60;99.90
15357;DHT22;7778;48.792;9.260;2023-02-28T03:49:26;-1.60;99.90
15357;DHT22;7778;48.792;9.260;2023-02-28T03:52:14;-1.60;99.90
15357;DHT22;7778;48.792;9.260;2023-02-28T03:55:03;-1.50;99.90
15357;DHT22;7778;48.792;9.260;2023-02-28T03:57:58;-1.60;99.90
15357;DHT22;7778;48.792;9.260;2023-02-28T04:00:49;-1.60;99.90
15357;DHT22;7778;48.792;9.260;2023-02-28T04:03:38;-1.60;99.90
15357;DHT22;7778;48.792;9.260;2023-02-28T04:06:24;-1.60;99.90
15357;DHT22;7778;48.792;9.260;2023-02-28T04:09:12;-1.50;99.90
15357;DHT22;7778;48.792;9.260;2023-02-28T04:11:59;-1.50;99.90
15357;DHT22;7778;48.792;9.260;2023-02-28T04:14:46;-1.40;99.90
15357;DHT22;7778;48.792;9.260;2023-02-28T04:17:32;-1.50;99.90
15357;DHT22;7778;48.792;9.260;2023-02-28T04:20:18;-1.50;99.90
15357;DHT22;7778;48.792;9.260;2023-02-28T04:23:04;-1.50;99.90
15357;DHT22;7778;48.792;9.260;2023-02-28T04:25:49;-1.50;99.90
15357;DHT22;7778;48.792;9.260;2023-02-28T04:28:37;-1.50;99.90
15357;DHT22;7778;48.792;9.260;2023-02-28T04:31:24;-1.40;99.90
15357;DHT22;7778;48.792;9.260;2023-02-28T04:34:10;-1.40;99.90
15357;DHT22;7778;48.792;9.260;2023-02-28T04:36:56;-1.40;99.90
15357;DHT22;7778;48.792;9.260;2023-02-28T04:39:42;-1.40;99.90
15357;DHT22;7778;48.792;9.260;2023-02-28T04:42:28;-1.40;99.90
15357;DHT22;7778;48.792;9.260;2023-02-28T04:45:19;-1.30;99.90
15357;DHT22;7778;48.792;9.260;2023-02-28T04:48:06;-1.30;99.90
15357;DHT22;7778;48.792;9.260;2023-02-28T04:50:51;-1.30;99.90
15357;DHT22;7778;48.792;9.260;2023-02-28T04:53:38;-1.30;99.90
15357;DHT22;7778;48.792;9.260;2023-02-28T04:56:25;-1.30;99.90
15357;DHT22;7778;48.792;9.260;2023-02-28T04:59:10;-1.20;99.90
15357;DHT22;7778;48.792;9.260;2023-02-28T05:01:56;-1.20;99.90
15357;DHT22;7778;48.792;9.260;2023-02-28T05:04:43;-1.30;99.90
15357;DHT22;7778;48.792;9.260;2023-02-28T05:07:28;-1.20;99.90
15357;DHT22;7778;48.792;9.260;2023-02-28T05:10:14;-1.20;99.90
15357;DHT22;7778;48.792;9.260;2023-02-28T05:12:59;-1.20;99.90
15357;DHT22;7778;48.792;9.260;2023-02-28T05:15:45;-1.20;99.90
15357;DHT22;7778;48.792;9.260;2023-02-28T05:18:30;-1.20;99.90
15357;DHT22;7778;48.792;9.260;2023-02-28T05:21:25;-1.20;99.90
15357;DHT22;7778;48.792;9.260;2023-02-28T05:24:12;-1.20;99.90
15357;DHT22;7778;48.792;9.260;2023-02-28T05:26:58;-1.20;99.90
15357;DHT22;7778;48.792;9.260;2023-02-28T05:29:43;-1.20;99.90
15357;DHT22;7778;48.792;9.260;2023-02-28T05:32:29;-1.20;99.90
15357;DHT22;7778;48.792;9.260;2023-02-28T05:35:14;-1.10;99.90
15357;DHT22;7778;48.792;9.260;2023-02-28T05:38:01;-1.10;99.90
15357;DHT22;7778;48.792;9.260;2023-02-28T05:40:47;-1.10;99.90
15357;DHT22;7778;48.792;9.260;2023-02-28T05:43:33;-0.90;99.90
15357;DHT22;7778;48.792;9.260;2023-02-28T05:46:19;-1.10;99.90
15357;DHT22;7778;48.792;9.260;2023-02-28T05:49:05;-1.00;99.90
15357;DHT22;7778;48.792;9.260;2023-02-28T05:51:50;-1.00;99.90
15357;DHT22;7778;48.792;9.260;2023-02-28T05:54:37;-1.00;99.90
15357;DHT22;7778;48.792;9.260;2023-02-28T05:57:23;-1.00;99.90
15357;DHT22;7778;48.792;9.260;2023-02-28T06:00:10;-1.00;99.90
15357;DHT22;7778;48.792;9.260;2023-02-28T06:02:58;-0.90;99.90
15357;DHT22;7778;48.792;9.260;2023-02-28T06:05:46;-0.90;99.90
15357;DHT22;7778;48.792;9.260;2023-02-28T06:08:31;-1.00;99.90
15357;DHT22;7778;48.792;9.260;2023-02-28T06:11:18;-0.90;99.90
15357;DHT22;7778;48.792;9.260;2023-02-28T06:14:05;-0.90;99.90
15357;DHT22;7778;48.792;9.260;2023-02-28T06:16:51;-0.90;99.90
15357;DHT22;7778;48.792;9.260;2023-02-28T06:19:37;-0.90;99.90
15357;DHT22;7778;48.792;9.260;2023-02-28T06:22:23;-0.90;99.90
15357;DHT22;7778;48.792;9.260;2023-02-28T06:25:09;-0.80;99.90
15357;DHT22;7778;48.792;9.260;2023-02-28T06:27:57;-0.80;99.90
15357;DHT22;7778;48.792;9.260;2023-02-28T06:30:43;-0.80;99.90
15357;DHT22;7778;48.792;9.260;2023-02-28T06:33:28;-0.80;99.90
15357;DHT22;7778;48.792;9.260;2023-02-28T06:36:15;-0.80;99.90
15357;DHT22;7778;48.792;9.260;2023-02-28T06:39:01;-0.80;99.90
15357;DHT22;7778;48.792;9.260;2023-02-28T06:41:46;-0.70;99.90
15357;DHT22;7778;48.792;9.260;2023-02-28T06:44:33;-0.70;99.90
15357;DHT22;7778;48.792;9.260;2023-02-28T06:47:20;-0.60;99.90
15357;DHT22;7778;48.792;9.260;2023-02-28T06:50:07;-0.70;99.90
15357;DHT22;7778;48.792;9.260;2023-02-28T06:52:53;-0.60;99.90
15357;DHT22;7778;48.792;9.260;2023-02-28T06:55:40;-0.60;99.90
15357;DHT22;7778;48.792;9.260;2023-02-28T06:58:26;-0.60;99.90
15357;DHT22;7778;48.792;9.260;2023-02-28T07:01:13;-0.60;99.90
15357;DHT22;7778;48.792;9.260;2023-02-28T07:03:59;-0.60;99.90
15357;DHT22;7778;48.792;9.260;2023-02-28T07:06:45;-0.60;99.90
15357;DHT22;7778;48.792;9.260;2023-02-28T07:09:31;-0.50;99.90
15357;DHT22;7778;48.792;9.260;2023-02-28T07:12:16;-0.50;99.90
15357;DHT22;7778;48.792;9.260;2023-02-28T07:15:02;-0.50;99.90
15357;DHT22;7778;48.792;9.260;2023-02-28T07:17:49;-0.50;99.90
15357;DHT22;7778;48.792;9.260;2023-02-28T07:20:35;-0.50;99.90
15357;DHT22;7778;48.792;9.260;2023-02-28T07:23:20;-0.40;99.90
15357;DHT22;7778;48.792;9.260;2023-02-28T07:26:07;-0.30;99.90
15357;DHT22;7778;48.792;9.260;2023-02-28T07:28:58;-0.30;99.90
15357;DHT22;7778;48.792;9.260;2023-02-28T07:31:44;-0.30;99.90
15357;DHT22;7778;48.792;9.260;2023-02-28T07:34:31;-0.40;99.90
15357;DHT22;7778;48.792;9.260;2023-02-28T07:37:17;-0.40;99.90
15357;DHT22;7778;48.792;9.260;2023-02-28T07:40:03;-0.40;99.90
15357;DHT22;7778;48.792;9.260;2023-02-28T07:42:52;-0.40;99.90
15357;DHT22;7778;48.792;9.260;2023-02-28T07:45:38;-0.40;99.90
15357;DHT22;7778;48.792;9.260;2023-02-28T07:48:24;-0.30;99.90
15357;DHT22;7778;48.792;9.260;2023-02-28T07:51:11;-0.30;99.90
15357;DHT22;7778;48.792;9.260;2023-02-28T07:53:56;-0.30;99.90
15357;DHT22;7778;48.792;9.260;2023-02-28T07:56:42;-0.40;99.90
15357;DHT22;7778;48.792;9.260;2023-02-28T07:59:28;-0.30;99.90
15357;DHT22;7778;48.792;9.260;2023-02-28T08:02:14;-0.20;99.90
15357;DHT22;7778;48.792;9.260;2023-02-28T08:05:01;-0.20;99.90
15357;DHT22;7778;48.792;9.260;2023-02-28T08:07:48;-0.30;99.90
15357;DHT22;7778;48.792;9.260;2023-02-28T08:10:34;-0.30;99.90
15357;DHT22;7778;48.792;9.260;2023-02-28T08:13:21;-0.20;99.90
15357;DHT22;7778;48.792;9.260;2023-02-28T08:16:08;-0.30;99.90
15357;DHT22;7778;48.792;9.260;2023-02-28T08:18:54;-0.20;99.90
15357;DHT22;7778;48.792;9.260;2023-02-28T08:21:40;0.00;99.90
15357;DHT22;7778;48.792;9.260;2023-02-28T08:24:27;-0.10;99.90
15357;DHT22;7778;48.792;9.260;2023-02-28T08:27:13;-0.20;99.90
15357;DHT22;7778;48.792;9.260;2023-02-28T08:29:58;-0.20;99.90
15357;DHT22;7778;48.792;9.260;2023-02-28T08:32:44;-0.10;99.90
15357;DHT22;7778;48.792;9.260;2023-02-28T08:35:30;0.00;99.90
15357;DHT22;7778;48.792;9.260;2023-02-28T08:38:15;-0.10;99.90
15357;DHT22;7778;48.792;9.260;2023-02-28T08:41:04;0.00;99.90
15357;DHT22;7778;48.792;9.260;2023-02-28T08:43:52;0.00;99.90
15357;DHT22;7778;48.792;9.260;2023-02-28T08:46:38;-0.10;99.90
15357;DHT22;7778;48.792;9.260;2023-02-28T08:49:24;0.00;99.90
15357;DHT22;7778;48.792;9.260;2023-02-28T08:52:09;0.10;99.90
15357;DHT22;7778;48.792;9.260;2023-02-28T08:54:55;0.10;99.90
15357;DHT22;7778;48.792;9.260;2023-02-28T08:57:42;0.00;99.90
15357;DHT22;7778;48.792;9.260;2023-02-28T09:00:27;0.10;99.90
15357;DHT22;7778;48.792;9.260;2023-02-28T09:03:13;0.10;99.90
15357;DHT22;7778;48.792;9.260;2023-02-28T09:06:00;0.00;99.90
15357;DHT22;7778;48.792;9.260;2023-02-28T09:08:46;0.20;99.90
15357;DHT22;7778;48.792;9.260;2023-02-28T09:11:32;0.20;99.90
15357;DHT22;7778;48.792;9.260;2023-02-28T09:14:20;0.30;99.90
15357;DHT22;7778;48.792;9.260;2023-02-28T09:17:05;0.30;99.90
15357;DHT22;7778;48.792;9.260;2023-02-28T09:19:51;0.30;99.90
15357;DHT22;7778;48.792;9.260;2023-02-28T09:22:36;0.30;99.90
15357;DHT22;7778;48.792;9.260;2023-02-28T09:25:22;0.40;99.90
15357;DHT22;7778;48.792;9.260;2023-02-28T09:28:07;0.60;99.90
15357;DHT22;7778;48.792;9.260;2023-02-28T09:30:54;0.80;99.90
15357;DHT22;7778;48.792;9.260;2023-02-28T09:33:41;0.80;99.90
15357;DHT22;7778;48.792;9.260;2023-02-28T09:36:28;1.00;99.90
15357;DHT22;7778;48.792;9.260;2023-02-28T09:39:14;1.10;99.90
15357;DHT22;7778;48.792;9.260;2023-02-28T09:42:01;1.00;99.90
15357;DHT22;7778;48.792;9.260;2023-02-28T09:44:48;1.10;99.90
15357;DHT22;7778;48.792;9.260;2023-02-28T09:47:40;1.20;99.90
15357;DHT22;7778;48.792;9.260;2023-02-28T09:50:32;1.20;99.90
15357;DHT22;7778;48.792;9.260;2023-02-28T09:53:22;1.10;99.90
15357;DHT22;7778;48.792;9.260;2023-02-28T09:56:15;1.10;99.90
15357;DHT22;7778;48.792;9.260;2023-02-28T09:59:17;1.10;99.90
15357;DHT22;7778;48.792;9.260;2023-02-28T10:02:21;1.10;99.90
15357;DHT22;7778;48.792;9.260;2023-02-28T10:05:31;1.30;99.90
15357;DHT22;7778;48.792;9.260;2023-02-28T10:08:22;1.30;99.90
15357;DHT22;7778;48.792;9.260;2023-02-28T10:11:12;1.70;99.90
15357;DHT22;7778;48.792;9.260;2023-02-28T10:14:02;1.90;99.90
15357;DHT22;7778;48.792;9.260;2023-02-28T10:16:54;2.00;99.90
15357;DHT22;7778;48.792;9.260;2023-02-28T10:19:44;1.90;99.90
15357;DHT22;7778;48.792;9.260;2023-02-28T10:22:38;1.70;99.90
15357;DHT22;7778;48.792;9.260;2023-02-28T10:25:29;1.80;99.90
15357;DHT22;7778;48.792;9.260;2023-02-28T10:28:16;2.00;99.90
15357;DHT22;7778;48.792;9.260;2023-02-28T10:31:03;2.30;99.90
15357;DHT22;7778;48.792;9.260;2023-02-28T10:33:49;2.30;99.90
15357;DHT22;7778;48.792;9.260;2023-02-28T10:36:35;2.20;99.90
15357;DHT22;7778;48.792;9.260;2023-02-28T10:39:40;2.10;99.90
15357;DHT22;7778;48.792;9.260;2023-02-28T10:42:28;2.30;99.90
15357;DHT22;7778;48.792;9.260;2023-02-28T10:45:16;2.50;99.90
15357;DHT22;7778;48.792;9.260;2023-02-28T10:48:04;3.00;99.90
15357;DHT22;7778;48.792;9.260;2023-02-28T10:51:10;3.00;99.90
15357;DHT22;7778;48.792;9.260;2023-02-28T10:53:57;4.00;99.90
15357;DHT22;7778;48.792;9.260;2023-02-28T10:56:44;4.90;99.90
15357;DHT22;7778;48.792;9.260;2023-02-28T10:59:31;5.50;99.90
15357;DHT22;7778;48.792;9.260;2023-02-28T11:02:32;5.70;99.90
15357;DHT22;7778;48.792;9.260;2023-02-28T11:05:25;5.70;99.90
15357;DHT22;7778;48.792;9.260;2023-02-28T11:08:15;6.30;99.90
15357;DHT22;7778;48.792;9.260;2023-02-28T11:11:04;5.70;99.90
15357;DHT22;7778;48.792;9.260;2023-02-28T11:13:55;4.50;99.90
15357;DHT22;7778;48.792;9.260;2023-02-28T11:16:41;4.70;99.90
15357;DHT22;7778;48.792;9.260;2023-02-28T11:19:33;5.20;99.90
15357;DHT22;7778;48.792;9.260;2023-02-28T11:22:23;5.60;99.90
15357;DHT22;7778;48.792;9.260;2023-02-28T11:25:20;5.80;99.90
15357;DHT22;7778;48.792;9.260;2023-02-28T11:28:24;6.30;99.90
15357;DHT22;7778;48.792;9.260;2023-02-28T11:31:18;5.70;99.90
15357;DHT22;7778;48.792;9.260;2023-02-28T11:34:23;5.50;99.90
15357;DHT22;7778;48.792;9.260;2023-02-28T11:37:12;5.20;99.90
15357;DHT22;7778;48.792;9.260;2023-02-28T11:39:59;4.90;99.90
15357;DHT22;7778;48.792;9.260;2023-02-28T11:42:53;5.80;99.90
15357;DHT22;7778;48.792;9.260;2023-02-28T11:46:06;6.90;99.90
15357;DHT22;7778;48.792;9.260;2023-02-28T11:49:04;6.80;99.90
15357;DHT22;7778;48.792;9.260;2023-02-28T11:52:00;5.90;99.90
15357;DHT22;7778;48.792;9.260;2023-02-28T11:54:59;4.90;99.90
15357;DHT22;7778;48.792;9.260;2023-02-28T12:01:25;4.60;99.90
15357;DHT22;7778;48.792;9.260;2023-02-28T12:04:24;4.30;99.90
15357;DHT22;7778;48.792;9.260;2023-02-28T12:07:16;4.20;99.90
15357;DHT22;7778;48.792;9.260;2023-02-28T12:10:09;4.70;99.90
15357;DHT22;7778;48.792;9.260;2023-02-28T12:13:15;4.80;99.90
15357;DHT22;7778;48.792;9.260;2023-02-28T12:16:32;5.20;99.90
15357;DHT22;7778;48.792;9.260;2023-02-28T12:19:26;5.10;99.90
15357;DHT22;7778;48.792;9.260;2023-02-28T12:22:27;4.60;99.90
15357;DHT22;7778;48.792;9.260;2023-02-28T12:25:31;4.70;99.90
15357;DHT22;7778;48.792;9.260;2023-02-28T12:28:35;4.40;99.90
15357;DHT22;7778;48.792;9.260;2023-02-28T12:31:27;4.70;99.90
15357;DHT22;7778;48.792;9.260;2023-02-28T12:34:18;4.70;99.90
15357;DHT22;7778;48.792;9.260;2023-02-28T12:37:12;4.80;99.90
15357;DHT22;7778;48.792;9.260;2023-02-28T12:40:04;4.90;99.90
15357;DHT22;7778;48.792;9.260;2023-02-28T12:42:58;4.90;99.90
15357;DHT22;7778;48.792;9.260;2023-02-28T12:45:48;4.90;99.90
15357;DHT22;7778;48.792;9.260;2023-02-28T12:48:40;4.90;99.90
15357;DHT22;7778;48.792;9.260;2023-02-28T12:51:28;5.20;99.90
15357;DHT22;7778;48.792;9.260;2023-02-28T12:54:21;5.10;99.90
15357;DHT22;7778;48.792;9.260;2023-02-28T12:57:13;5.20;99.90
15357;DHT22;7778;48.792;9.260;2023-02-28T13:00:03;5.40;99.90
15357;DHT22;7778;48.792;9.260;2023-02-28T13:03:26;5.30;99.90
15357;DHT22;7778;48.792;9.260;2023-02-28T13:06:32;5.40;99.90
15357;DHT22;7778;48.792;9.260;2023-02-28T13:09:27;5.20;99.90
15357;DHT22;7778;48.792;9.260;2023-02-28T13:12:14;5.10;99.90
15357;DHT22;7778;48.792;9.260;2023-02-28T13:15:05;5.00;99.90
15357;DHT22;7778;48.792;9.260;2023-02-28T13:17:58;5.50;99.90
15357;DHT22;7778;48.792;9.260;2023-02-28T13:20:47;5.80;99.90
15357;DHT22;7778;48.792;9.260;2023-02-28T13:23:59;5.60;99.90
15357;DHT22;7778;48.792;9.260;2023-02-28T13:27:19;5.50;99.90
15357;DHT22;7778;48.792;9.260;2023-02-28T13:34:12;5.50;99.90
15357;DHT22;7778;48.792;9.260;2023-02-28T13:37:32;5.50;99.90
15357;DHT22;7778;48.792;9.260;2023-02-28T13:40:30;5.60;99.90
15357;DHT22;7778;48.792;9.260;2023-02-28T13:44:00;5.70;99.90
15357;DHT22;7778;48.792;9.260;2023-02-28T13:47:19;5.70;99.90
15357;DHT22;7778;48.792;9.260;2023-02-28T13:50:24;5.60;99.90
15357;DHT22;7778;48.792;9.260;2023-02-28T13:53:45;5.50;99.90
15357;DHT22;7778;48.792;9.260;2023-02-28T13:56:45;5.50;99.90
15357;DHT22;7778;48.792;9.260;2023-02-28T13:59:44;5.60;99.90
15357;DHT22;7778;48.792;9.260;2023-02-28T14:06:22;5.60;99.90
15357;DHT22;7778;48.792;9.260;2023-02-28T14:09:21;5.40;99.90
15357;DHT22;7778;48.792;9.260;2023-02-28T14:15:47;5.40;99.90
15357;DHT22;7778;48.792;9.260;2023-02-28T14:18:37;5.60;99.90
15357;DHT22;7778;48.792;9.260;2023-02-28T14:21:28;5.60;99.90
15357;DHT22;7778;48.792;9.260;2023-02-28T14:27:48;5.50;99.90
15357;DHT22;7778;48.792;9.260;2023-02-28T14:30:56;5.60;99.90
15357;DHT22;7778;48.792;9.260;2023-02-28T14:34:02;5.50;99.90
15357;DHT22;7778;48.792;9.260;2023-02-28T14:36:59;5.50;99.90
15357;DHT22;7778;48.792;9.260;2023-02-28T14:39:46;5.50;99.90
15357;DHT22;7778;48.792;9.260;2023-02-28T14:42:35;5.60;99.90
15357;DHT22;7778;48.792;9.260;2023-02-28T14:45:23;5.40;99.90
15357;DHT22;7778;48.792;9.260;2023-02-28T14:48:10;5.40;99.90
15357;DHT22;7778;48.792;9.260;2023-02-28T14:50:58;5.40;99.90
15357;DHT22;7778;48.792;9.260;2023-02-28T14:53:47;5.40;99.90
15357;DHT22;7778;48.792;9.260;2023-02-28T14:56:36;5.40;99.90
15357;DHT22;7778;48.792;9.260;2023-02-28T14:59:26;5.40;99.90
15357;DHT22;7778;48.792;9.260;2023-02-28T15:02:20;5.40;99.90
15357;DHT22;7778;48.792;9.260;2023-02-28T15:05:24;5.60;99.90
15357;DHT22;7778;48.792;9.260;2023-02-28T15:08:13;5.50;99.90
15357;DHT22;7778;48.792;9.260;2023-02-28T15:11:02;5.70;99.90
15357;DHT22;7778;48.792;9.260;2023-02-28T15:16:34;5.50;99.90
15357;DHT22;7778;48.792;9.260;2023-02-28T15:19:24;5.50;99.90
15357;DHT22;7778;48.792;9.260;2023-02-28T15:22:20;5.30;99.90
15357;DHT22;7778;48.792;9.260;2023-02-28T15:25:15;5.30;99.90
15357;DHT22;7778;48.792;9.260;2023-02-28T15:28:04;5.20;99.90
15357;DHT22;7778;48.792;9.260;2023-02-28T15:30:56;5.20;99.90
15357;DHT22;7778;48.792;9.260;2023-02-28T15:33:52;5.20;99.90
15357;DHT22;7778;48.792;9.260;2023-02-28T15:36:39;5.20;99.90
15357;DHT22;7778;48.792;9.260;2023-02-28T15:39:28;5.20;99.90
15357;DHT22;7778;48.792;9.260;2023-02-28T15:45:44;5.00;99.90
15357;DHT22;7778;48.792;9.260;2023-02-28T15:48:33;4.90;99.90
15357;DHT22;7778;48.792;9.260;2023-02-28T15:51:23;5.00;99.90
15357;DHT22;7778;48.792;9.260;2023-02-28T15:54:15;4.90;99.90
15357;DHT22;7778;48.792;9.260;2023-02-28T15:57:10;5.00;99.90
15357;DHT22;7778;48.792;9.260;2023-02-28T16:00:01;4.80;99.90
15357;DHT22;7778;48.792;9.260;2023-02-28T16:02:50;4.80;99.90
15357;DHT22;7778;48.792;9.260;2023-02-28T16:05:36;4.70;99.90
15357;DHT22;7778;48.792;9.260;2023-02-28T16:08:22;4.70;99.90
15357;DHT22;7778;48.792;9.260;2023-02-28T16:14:25;4.60;99.90
15357;DHT22;7778;48.792;9.260;2023-02-28T16:17:20;4.60;99.90
15357;DHT22;7778;48.792;9.260;2023-02-28T16:20:13;4.50;99.90
15357;DHT22;7778;48.792;9.260;2023-02-28T16:25:43;4.50;99.90
15357;DHT22;7778;48.792;9.260;2023-02-28T16:28:32;4.40;99.90
15357;DHT22;7778;48.792;9.260;2023-02-28T16:31:21;4.40;99.90
15357;DHT22;7778;48.792;9.260;2023-02-28T16:34:07;4.40;99.90
15357;DHT22;7778;48.792;9.260;2023-02-28T16:36:53;4.30;99.90
15357;DHT22;7778;48.792;9.260;2023-02-28T16:39:39;4.20;99.90
15357;DHT22;7778;48.792;9.260;2023-02-28T16:42:27;4.20;99.90
15357;DHT22;7778;48.792;9.260;2023-02-28T16:45:23;4.40;99.90
15357;DHT22;7778;48.792;9.260;2023-02-28T16:48:14;4.20;99.90
15357;DHT22;7778;48.792;9.260;2023-02-28T16:51:01;4.10;99.90
15357;DHT22;7778;48.792;9.260;2023-02-28T16:53:48;4.10;99.90
15357;DHT22;7778;48.792;9.260;2023-02-28T16:56:34;4.00;99.90
15357;DHT22;7778;48.792;9.260;2023-02-28T16:59:22;4.00;99.90
15357;DHT22;7778;48.792;9.260;2023-02-28T17:02:11;3.90;99.90
15357;DHT22;7778;48.792;9.260;2023-02-28T17:04:59;3.90;99.90
15357;DHT22;7778;48.792;9.260;2023-02-28T17:07:45;3.80;99.90
15357;DHT22;7778;48.792;9.260;2023-02-28T17:10:32;3.80;99.90
15357;DHT22;7778;48.792;9.260;2023-02-28T17:13:18;3.80;99.90
15357;DHT22;7778;48.792;9.260;2023-02-28T17:16:04;3.70;99.90
15357;DHT22;7778;48.792;9.260;2023-02-28T17:18:50;3.60;99.90
15357;DHT22;7778;48.792;9.260;2023-02-28T17:21:38;3.60;99.90
15357;DHT22;7778;48.792;9.260;2023-02-28T17:24:25;3.50;99.90
15357;DHT22;7778;48.792;9.260;2023-02-28T17:27:12;3.40;99.90
15357;DHT22;7778;48.792;9.260;2023-02-28T17:29:57;3.40;99.90
15357;DHT22;7778;48.792;9.260;2023-02-28T17:32:44;3.30;99.90
15357;DHT22;7778;48.792;9.260;2023-02-28T17:35:29;3.30;99.90
15357;DHT22;7778;48.792;9.260;2023-02-28T17:38:19;3.20;99.90
15357;DHT22;7778;48.792;9.260;2023-02-28T17:41:08;3.20;99.90
15357;DHT22;7778;48.792;9.260;2023-02-28T17:43:55;3.20;99.90
15357;DHT22;7778;48.792;9.260;2023-02-28T17:46:42;3.10;99.90
15357;DHT22;7778;48.792;9.260;2023-02-28T17:49:28;3.30;99.90
15357;DHT22;7778;48.792;9.260;2023-02-28T17:52:14;3.50;99.90
15357;DHT22;7778;48.792;9.260;2023-02-28T17:55:01;3.20;99.90
15357;DHT22;7778;48.792;9.260;2023-02-28T17:57:47;3.10;99.90
15357;DHT22;7778;48.792;9.260;2023-02-28T18:00:41;3.00;99.90
15357;DHT22;7778;48.792;9.260;2023-02-28T18:03:30;3.00;99.90
15357;DHT22;7778;48.792;9.260;2023-02-28T18:09:05;2.90;99.90
15357;DHT22;7778;48.792;9.260;2023-02-28T18:11:54;2.80;99.90
15357;DHT22;7778;48.792;9.260;2023-02-28T18:14:40;2.80;99.90
15357;DHT22;7778;48.792;9.260;2023-02-28T18:17:27;2.70;99.90
15357;DHT22;7778;48.792;9.260;2023-02-28T18:23:18;2.70;99.90
15357;DHT22;7778;48.792;9.260;2023-02-28T18:26:06;2.80;99.90
15357;DHT22;7778;48.792;9.260;2023-02-28T18:28:54;2.50;99.90
15357;DHT22;7778;48.792;9.260;2023-02-28T18:31:40;2.60;99.90
15357;DHT22;7778;48.792;9.260;2023-02-28T18:34:26;2.40;99.90
15357;DHT22;7778;48.792;9.260;2023-02-28T18:39:47;2.30;99.90
15357;DHT22;7778;48.792;9.260;2023-02-28T18:42:33;2.20;99.90
15357;DHT22;7778;48.792;9.260;2023-02-28T18:45:20;2.30;99.90
15357;DHT22;7778;48.792;9.260;2023-02-28T18:48:06;2.30;99.90
15357;DHT22;7778;48.792;9.260;2023-02-28T18:50:51;2.00;99.90
15357;DHT22;7778;48.792;9.260;2023-02-28T18:53:38;2.20;99.90
15357;DHT22;7778;48.792;9.260;2023-02-28T18:56:25;1.90;99.90
15357;DHT22;7778;48.792;9.260;2023-02-28T18:59:11;1.90;99.90
15357;DHT22;7778;48.792;9.260;2023-02-28T19:01:59;1.90;99.90
15357;DHT22;7778;48.792;9.260;2023-02-28T19:04:44;2.00;99.90
15357;DHT22;7778;48.792;9.260;2023-02-28T19:07:30;1.90;99.90
15357;DHT22;7778;48.792;9.260;2023-02-28T19:10:16;1.90;99.90
15357;DHT22;7778;48.792;9.260;2023-02-28T19:13:02;1.80;99.90